Augusta Regional At Bush Field
KAGS : rendu visible

Aérodrome :











RETROUVEZ-NOUS SUR...

 
LOGIN :

S'inscrire | Disclaimer

   EN    FR    IT 

 









Légende :    VFR   VFR Marginal   IFR   IFR Intensif   IFR Très Intensif
Visi : 
Plafond : 
>= 8 km
>= 3000ft
5 à 8 km
1000 à 3000 ft
1500m à 5 km
500 à 1000 ft
800 à 1500m
200 à 500 ft
< 800m
< 200 ft
Symboles :   Orages  Brouillard  Fortes neiges  Fortes précipitations  Vent > 20 kt






- Altitude de l'aérodrome : 144 ft
- Code IATA : AGS


KAGS - Augusta Regional At Bush Field

DERNIER METAR :
  • 311853Z 02011KT 10SM CLR 31/17 A3003 RMK AO2 SLP166 T03110172

METARs EXPIRÉS :
  • 311753Z VRB05KT 10SM CLR 31/16 A3004 RMK AO2 SLP169 T03060156 10311 20222 58001
  • 311653Z 07008KT 10SM CLR 30/16 A3004 RMK AO2 SLP170 T03000161

TAF KAGS
Valide du 31 à 18h jusqu'au 01 à 18h UTC


311721Z 3118/0118 05008KT P6SM FEW060
FM010100 VRB03KT P6SM SKC
FM011400 08008KT P6SM FEW060
FIR KZTL / Amérique du Nord



MET'MAP, la Météo Aéronautique d'un coup d'oeil ! - Copyright ORBIFLY Décembre 2007 - Disclaimer

ORBIFLY MET'MAP TEAM :

Programmation & Développement : Alexandra Zaïnal
Sur une idée originale de : Baudouin d'Aumeries
Assistance à la programmation : Marc-Olivier Méhu
Soutien technique & logistique : Manuel Goepfert

Contact : metmap@orbifly.com




SOURCES & CREDITS :

   NOAA       Earth
Advisory